Clyde, North Dakota
Current Conditions -  °F | °C
As of 10:15 PM on Tuesday 25 Nov 2014 (Local Time) from K9D7 Reporting Station
Overcast Overcast  
Wind Chill: -10°   Ceiling: 600
Heat Index:   Visibility: 10mi
Dew Point:   Wind: 14mph
Humidity: 85%   Direction: 30°NNE
Pressure: 30.12"   Gusts: NA
Location:  48.6309°N, 98.8489°W
Report Text: K9D7 260415Z AUTO 03012KT 10SM OVC006 M14/M16 A3012 RMK AO2
Loading
Personal Weather Stations






























Interactive Weather Map New forecast layout! Learn more

10-Day Weather Forecast

Advertisements
Track Severe Weather on mobile